Time;durP1;ratioP1;P1;durP2;ratioP2;P2;SDS_P1;SDS_P2;PMS_P1;PMS_P2;Temp;Humidity;BMP_temperature;BMP_pressure;BME280_temperature;BME280_humidity;BME280_pressure;Samples;Min_cycle;Max_cycle;Signal;HPM_P1;HPM_P2
2021/01/24 00:00:06;;;;;;;5.13;2.42;;;2.50;99.90;;;;;;4927019;29;20166;-74
2021/01/24 00:02:32;;;;;;;4.30;2.90;;;2.50;99.90;;;;;;4931607;29;20071;-74
2021/01/24 00:04:59;;;;;;;8.52;3.10;;;2.50;99.90;;;;;;4931962;29;20415;-74
2021/01/24 00:07:25;;;;;;;4.22;1.70;;;2.60;99.90;;;;;;4931230;29;20154;-74
2021/01/24 00:09:52;;;;;;;3.08;1.30;;;2.50;99.90;;;;;;4929461;29;20133;-74
2021/01/24 00:12:18;;;;;;;3.10;2.03;;;2.50;99.90;;;;;;4928198;29;20068;-74
2021/01/24 00:14:44;;;;;;;3.75;1.45;;;2.50;99.90;;;;;;4927737;29;20453;-74
2021/01/24 00:17:11;;;;;;;2.72;1.60;;;2.50;99.90;;;;;;4929695;29;20051;-74
2021/01/24 00:19:37;;;;;;;4.03;1.35;;;2.50;99.90;;;;;;4930182;29;20452;-74
2021/01/24 00:22:04;;;;;;;2.08;1.30;;;2.50;99.90;;;;;;4929848;29;20115;-74
2021/01/24 00:24:30;;;;;;;2.47;1.20;;;2.40;99.90;;;;;;4930445;29;20511;-73
2021/01/24 00:26:57;;;;;;;2.67;1.33;;;2.30;99.90;;;;;;4944625;29;20052;-73
2021/01/24 00:29:23;;;;;;;2.75;1.33;;;2.30;99.90;;;;;;4930602;29;20521;-74
2021/01/24 00:31:49;;;;;;;1.60;0.90;;;2.20;99.90;;;;;;4931062;29;20107;-73
2021/01/24 00:34:16;;;;;;;1.90;0.90;;;2.20;99.90;;;;;;4929916;29;20130;-73
2021/01/24 00:36:42;;;;;;;2.72;1.15;;;2.10;99.90;;;;;;4930191;29;20130;-74
2021/01/24 00:39:09;;;;;;;1.92;1.10;;;2.00;99.90;;;;;;4924733;29;20048;-75
2021/01/24 00:41:35;;;;;;;2.55;0.80;;;1.80;99.90;;;;;;4930591;29;20052;-75
2021/01/24 00:44:02;;;;;;;1.70;0.90;;;1.70;99.90;;;;;;4924675;29;20118;-76
2021/01/24 00:46:28;;;;;;;4.45;1.17;;;1.60;99.90;;;;;;4927024;29;20154;-75
2021/01/24 00:48:55;;;;;;;1.25;0.70;;;1.50;99.90;;;;;;4929265;29;20048;-75
2021/01/24 00:51:21;;;;;;;2.50;0.93;;;1.50;99.90;;;;;;4924330;29;20507;-75
2021/01/24 00:53:47;;;;;;;2.30;1.00;;;1.40;99.90;;;;;;4928249;29;20058;-74
2021/01/24 00:56:14;;;;;;;3.40;1.23;;;1.40;99.90;;;;;;4930513;29;20554;-75
2021/01/24 00:58:41;;;;;;;2.60;1.42;;;1.40;99.90;;;;;;4931655;29;20135;-75
2021/01/24 01:01:08;;;;;;;2.25;0.98;;;1.50;99.90;;;;;;4925456;29;20118;-74
2021/01/24 01:03:34;;;;;;;2.10;1.23;;;1.50;99.90;;;;;;4931420;29;20050;-75
2021/01/24 01:06:00;;;;;;;2.35;0.82;;;1.40;99.90;;;;;;4927862;29;20208;-74
2021/01/24 01:08:27;;;;;;;2.00;1.08;;;1.50;99.90;;;;;;4931035;29;20146;-74
2021/01/24 01:10:53;;;;;;;1.88;0.80;;;1.60;99.90;;;;;;4929977;29;20055;-74
2021/01/24 01:13:19;;;;;;;1.70;0.98;;;1.60;99.90;;;;;;4930464;29;20131;-75
2021/01/24 01:15:45;;;;;;;2.45;1.10;;;1.50;99.90;;;;;;4927461;29;20059;-74
2021/01/24 01:18:12;;;;;;;1.38;0.90;;;1.50;99.90;;;;;;4927410;29;20526;-75
2021/01/24 01:20:38;;;;;;;1.17;0.85;;;1.50;99.90;;;;;;4925804;29;20076;-74
2021/01/24 01:23:04;;;;;;;1.20;0.50;;;1.40;99.90;;;;;;4930795;29;20097;-74
2021/01/24 01:25:31;;;;;;;2.85;1.00;;;1.40;99.90;;;;;;4930641;29;20131;-74
2021/01/24 01:27:57;;;;;;;1.67;0.90;;;1.40;99.90;;;;;;4934398;28;20344;-75
2021/01/24 01:30:24;;;;;;;1.00;0.50;;;1.30;99.90;;;;;;4931455;29;20083;-74
2021/01/24 01:32:51;;;;;;;2.17;0.70;;;1.30;99.90;;;;;;4925922;29;20465;-74
2021/01/24 01:35:17;;;;;;;2.55;0.90;;;1.20;99.90;;;;;;4931361;29;20040;-74
2021/01/24 01:37:44;;;;;;;1.35;0.73;;;1.20;99.90;;;;;;4928346;29;20398;-74
2021/01/24 01:40:10;;;;;;;4.28;0.93;;;1.10;99.90;;;;;;4934555;29;20066;-75
2021/01/24 01:42:37;;;;;;;1.42;0.80;;;1.10;99.90;;;;;;4946026;29;20122;-74
2021/01/24 01:45:05;;;;;;;2.42;1.10;;;1.10;99.90;;;;;;4930390;29;20048;-74
2021/01/24 01:47:34;;;;;;;2.15;0.90;;;1.10;99.90;;;;;;4929480;29;20063;-74
2021/01/24 01:50:01;;;;;;;1.98;1.13;;;1.10;99.90;;;;;;4929488;29;20058;-74
2021/01/24 01:52:28;;;;;;;2.33;0.80;;;1.00;99.90;;;;;;4930970;29;20078;-74
2021/01/24 01:54:56;;;;;;;1.73;0.75;;;1.00;99.90;;;;;;4936652;29;20432;-75
2021/01/24 01:57:24;;;;;;;2.35;1.00;;;1.00;99.90;;;;;;4928981;29;20076;-74
2021/01/24 01:59:51;;;;;;;1.23;0.70;;;1.00;99.90;;;;;;4925747;29;20130;-75
2021/01/24 02:02:34;;;;;;;2.25;0.90;;;1.10;99.90;;;;;;4927622;29;20154;-74
2021/01/24 02:05:39;;;;;;;2.30;1.02;;;1.00;99.90;;;;;;4935011;29;20506;-75
2021/01/24 02:08:29;;;;;;;1.10;0.60;;;1.10;99.90;;;;;;4933142;29;20047;-74
2021/01/24 02:11:00;;;;;;;1.25;0.68;;;1.10;99.90;;;;;;4936905;29;20056;-74
2021/01/24 02:13:57;;;;;;;2.85;1.30;;;1.10;99.90;;;;;;4932880;29;20139;-74
2021/01/24 02:16:25;;;;;;;2.15;1.13;;;1.10;99.90;;;;;;4932983;29;20102;-75
2021/01/24 02:18:53;;;;;;;3.92;1.73;;;1.10;99.90;;;;;;4951973;28;20098;-74
2021/01/24 02:21:34;;;;;;;2.47;1.42;;;1.10;99.90;;;;;;4932802;29;20146;-74
2021/01/24 02:24:09;;;;;;;4.70;1.92;;;1.10;99.90;;;;;;4934450;29;20047;-74
2021/01/24 02:26:47;;;;;;;3.60;1.92;;;1.10;99.90;;;;;;4934129;29;20081;-74
2021/01/24 02:29:36;;;;;;;2.65;1.30;;;1.00;99.90;;;;;;4926043;29;20103;-74
2021/01/24 02:32:06;;;;;;;4.30;1.42;;;1.00;99.90;;;;;;4934403;29;20130;-74
2021/01/24 02:34:36;;;;;;;2.13;1.20;;;1.00;99.90;;;;;;4933832;29;20044;-75
2021/01/24 02:37:04;;;;;;;2.13;1.25;;;1.00;99.90;;;;;;4933725;29;20039;-74
2021/01/24 02:39:31;;;;;;;5.47;2.42;;;1.10;99.90;;;;;;4933994;29;20074;-74
2021/01/24 02:41:59;;;;;;;5.05;2.17;;;1.00;99.90;;;;;;4933706;29;20050;-74
2021/01/24 02:44:26;;;;;;;7.13;2.70;;;1.00;99.90;;;;;;4936714;29;20047;-74
2021/01/24 02:46:57;;;;;;;5.32;2.13;;;1.10;99.90;;;;;;4932159;29;20119;-74
2021/01/24 02:49:28;;;;;;;5.55;2.97;;;1.10;99.90;;;;;;4933975;29;20056;-74
2021/01/24 02:51:55;;;;;;;5.57;2.63;;;1.10;99.90;;;;;;4920984;29;20084;-74
2021/01/24 02:54:23;;;;;;;7.43;4.05;;;1.10;99.90;;;;;;4934206;29;20130;-75
2021/01/24 02:56:49;;;;;;;12.75;4.05;;;1.00;99.90;;;;;;4935250;29;20086;-74
2021/01/24 02:59:16;;;;;;;10.20;5.55;;;1.00;99.90;;;;;;4933204;29;20067;-74
2021/01/24 03:01:42;;;;;;;9.27;5.55;;;1.10;99.90;;;;;;4938491;29;20074;-74
2021/01/24 03:04:09;;;;;;;13.55;6.00;;;1.00;99.90;;;;;;4928602;29;20040;-74
2021/01/24 03:06:35;;;;;;;16.45;7.47;;;1.00;99.90;;;;;;4934888;28;20119;-74
2021/01/24 03:09:02;;;;;;;18.02;7.65;;;1.00;99.90;;;;;;4932063;29;20083;-74
2021/01/24 03:11:32;;;;;;;13.45;7.38;;;1.00;99.90;;;;;;4934262;29;20135;-74
2021/01/24 03:14:06;;;;;;;18.35;8.10;;;1.00;99.90;;;;;;4946939;28;20155;-74
2021/01/24 03:16:35;;;;;;;17.77;8.48;;;0.90;99.90;;;;;;4928261;29;20050;-74
2021/01/24 03:19:03;;;;;;;13.20;6.65;;;1.00;99.90;;;;;;4944387;28;20150;-74
2021/01/24 03:21:33;;;;;;;13.95;7.13;;;1.00;99.90;;;;;;4940534;28;20127;-74
2021/01/24 03:24:00;;;;;;;18.02;8.43;;;0.90;99.90;;;;;;4933162;29;20130;-74
2021/01/24 03:26:26;;;;;;;15.35;8.07;;;0.90;99.90;;;;;;4931992;29;20502;-74
2021/01/24 03:28:53;;;;;;;16.00;8.60;;;0.90;99.90;;;;;;4940453;29;20082;-74
2021/01/24 03:31:19;;;;;;;16.48;8.68;;;1.00;99.90;;;;;;4935946;29;20051;-74
2021/01/24 03:33:46;;;;;;;16.48;6.70;;;0.90;99.90;;;;;;4932775;29;20048;-74
2021/01/24 03:36:12;;;;;;;18.88;10.65;;;0.90;99.90;;;;;;4932767;29;20123;-74
2021/01/24 03:38:39;;;;;;;13.88;7.88;;;0.90;99.90;;;;;;4933069;29;20062;-74
2021/01/24 03:41:06;;;;;;;19.27;8.82;;;0.90;99.90;;;;;;4932779;29;20094;-75
2021/01/24 03:43:32;;;;;;;20.33;8.75;;;0.90;99.90;;;;;;4933791;29;20086;-73
2021/01/24 03:45:58;;;;;;;9.93;5.78;;;1.00;99.90;;;;;;4931349;29;20590;-74
2021/01/24 03:48:25;;;;;;;14.18;7.85;;;0.90;99.90;;;;;;4931352;29;20485;-74
2021/01/24 03:50:51;;;;;;;12.60;7.15;;;0.90;99.90;;;;;;4946139;28;20482;-74
2021/01/24 03:53:17;;;;;;;15.98;8.27;;;0.90;99.90;;;;;;4927612;29;20078;-75
2021/01/24 03:55:44;;;;;;;17.92;8.77;;;0.80;99.90;;;;;;4926694;29;20110;-74
2021/01/24 03:58:10;;;;;;;12.57;6.28;;;0.80;99.90;;;;;;4923262;29;20056;-74
2021/01/24 04:00:36;;;;;;;14.10;5.95;;;0.80;99.90;;;;;;4948791;29;20047;-74
2021/01/24 04:03:03;;;;;;;11.70;6.63;;;0.90;99.90;;;;;;4931569;29;20072;-74
2021/01/24 04:05:30;;;;;;;11.25;5.35;;;0.90;99.90;;;;;;4929854;29;20048;-73
2021/01/24 04:07:56;;;;;;;11.93;6.03;;;0.80;99.90;;;;;;4933712;28;20468;-74
2021/01/24 04:10:22;;;;;;;10.88;4.68;;;0.80;99.90;;;;;;4929592;29;20330;-74
2021/01/24 04:12:49;;;;;;;13.07;6.40;;;0.80;99.90;;;;;;4932243;29;20123;-74
2021/01/24 04:15:17;;;;;;;11.20;5.95;;;0.80;99.90;;;;;;4931773;29;20142;-73
2021/01/24 04:17:45;;;;;;;17.42;5.70;;;0.70;99.90;;;;;;4932987;29;20506;-73
2021/01/24 04:20:12;;;;;;;12.32;5.82;;;0.70;99.90;;;;;;4931737;29;20050;-73
2021/01/24 04:22:38;;;;;;;12.88;6.75;;;0.70;99.90;;;;;;4932094;29;20132;-73
2021/01/24 04:25:05;;;;;;;12.02;5.57;;;0.70;99.90;;;;;;4929867;29;20110;-73
2021/01/24 04:27:32;;;;;;;15.95;6.45;;;0.60;99.90;;;;;;4917497;29;20571;-73
2021/01/24 04:29:58;;;;;;;11.85;5.97;;;0.60;99.90;;;;;;4937706;28;20054;-75
2021/01/24 04:32:24;;;;;;;11.75;6.47;;;0.60;99.90;;;;;;4931367;29;20139;-75
2021/01/24 04:34:51;;;;;;;13.23;5.65;;;0.60;99.90;;;;;;4932242;29;20075;-75
2021/01/24 04:37:17;;;;;;;8.65;4.85;;;0.60;99.90;;;;;;4929262;29;20138;-75
2021/01/24 04:39:43;;;;;;;13.52;5.93;;;0.50;99.90;;;;;;4937426;29;20063;-75
2021/01/24 04:42:10;;;;;;;8.75;5.30;;;0.50;99.90;;;;;;4937044;29;20099;-75
2021/01/24 04:44:37;;;;;;;9.18;4.55;;;0.50;99.90;;;;;;4931697;29;20156;-75
2021/01/24 04:47:05;;;;;;;12.80;5.70;;;0.40;99.90;;;;;;4930976;29;20091;-75
2021/01/24 04:49:32;;;;;;;9.05;5.22;;;0.50;99.90;;;;;;4930742;29;20067;-75
2021/01/24 04:52:00;;;;;;;10.52;5.32;;;0.40;99.90;;;;;;4935248;29;20123;-75
2021/01/24 04:54:28;;;;;;;8.30;3.40;;;0.40;99.90;;;;;;4935940;28;20044;-75
2021/01/24 04:56:55;;;;;;;11.70;5.60;;;0.60;99.90;;;;;;4931585;29;20060;-75
2021/01/24 04:59:21;;;;;;;8.10;4.85;;;0.50;99.90;;;;;;4931420;28;20138;-76
2021/01/24 05:01:48;;;;;;;11.02;5.75;;;0.50;99.90;;;;;;4931323;29;20091;-75
2021/01/24 05:04:15;;;;;;;10.07;5.20;;;0.40;99.90;;;;;;4931930;29;20047;-75
2021/01/24 05:06:42;;;;;;;10.07;4.85;;;0.40;99.90;;;;;;4934219;29;20043;-76
2021/01/24 05:09:08;;;;;;;9.02;4.13;;;0.40;99.90;;;;;;4930284;29;20489;-75
2021/01/24 05:11:35;;;;;;;14.38;5.68;;;0.40;99.90;;;;;;4932119;29;20162;-75
2021/01/24 05:14:24;;;;;;;8.15;3.85;;;0.40;99.90;;;;;;4936808;29;20581;-75
2021/01/24 05:16:52;;;;;;;14.75;5.75;;;0.40;99.90;;;;;;4936291;29;20071;-75
2021/01/24 05:19:22;;;;;;;13.15;5.68;;;0.30;99.90;;;;;;4930002;29;20388;-75
2021/01/24 05:21:50;;;;;;;14.90;6.70;;;0.30;99.90;;;;;;4932401;29;20110;-75
2021/01/24 05:24:18;;;;;;;11.52;5.85;;;0.30;99.90;;;;;;4929197;29;20135;-75
2021/01/24 05:26:48;;;;;;;12.48;6.43;;;0.20;99.90;;;;;;4926404;29;20249;-75
2021/01/24 05:29:27;;;;;;;11.65;6.65;;;0.30;99.90;;;;;;4932423;29;20479;-75
2021/01/24 05:31:55;;;;;;;13.75;6.55;;;0.20;99.90;;;;;;4931097;29;20090;-75
2021/01/24 05:34:26;;;;;;;11.95;5.50;;;0.20;99.90;;;;;;4946252;29;20095;-74
2021/01/24 05:36:54;;;;;;;10.23;7.05;;;0.20;99.90;;;;;;4933767;29;20082;-74
2021/01/24 05:39:21;;;;;;;12.80;6.38;;;0.20;99.90;;;;;;4932938;29;20054;-74
2021/01/24 05:41:49;;;;;;;12.45;5.80;;;0.20;99.90;;;;;;4936775;29;20048;-74
2021/01/24 05:44:17;;;;;;;14.23;6.80;;;0.20;99.90;;;;;;4935004;29;20052;-75
2021/01/24 05:46:43;;;;;;;10.40;4.35;;;0.20;99.90;;;;;;4938301;29;20130;-75
2021/01/24 05:49:13;;;;;;;5.90;3.40;;;0.20;99.90;;;;;;4936053;29;20094;-74
2021/01/24 05:51:41;;;;;;;8.38;3.78;;;0.20;99.90;;;;;;4932976;29;20557;-75
2021/01/24 05:54:07;;;;;;;8.35;4.65;;;0.30;99.90;;;;;;4933109;29;20135;-74
2021/01/24 05:56:33;;;;;;;9.25;4.95;;;0.20;99.90;;;;;;4934853;29;20131;-74
2021/01/24 05:59:02;;;;;;;10.93;5.75;;;0.20;99.90;;;;;;4934735;29;20147;-74
2021/01/24 06:01:29;;;;;;;12.25;6.28;;;0.20;99.90;;;;;;4945651;28;20130;-74
2021/01/24 06:03:58;;;;;;;12.95;6.13;;;0.20;99.90;;;;;;4949247;28;20052;-74
2021/01/24 06:06:25;;;;;;;15.55;6.50;;;0.20;99.90;;;;;;4933320;29;20162;-74
2021/01/24 06:08:51;;;;;;;13.82;5.50;;;0.20;99.90;;;;;;4935668;29;20419;-74
2021/01/24 06:11:19;;;;;;;10.57;5.68;;;0.20;99.90;;;;;;4934988;28;20134;-74
2021/01/24 06:13:47;;;;;;;12.73;6.53;;;0.10;99.90;;;;;;4934334;29;20135;-74
2021/01/24 06:16:29;;;;;;;12.93;6.53;;;0.20;99.90;;;;;;4938223;28;20048;-74
2021/01/24 06:19:03;;;;;;;10.23;6.07;;;0.20;99.90;;;;;;4943743;28;20068;-74
2021/01/24 06:21:38;;;;;;;15.07;6.70;;;0.20;99.90;;;;;;4920713;29;20103;-74
2021/01/24 06:24:26;;;;;;;9.80;5.90;;;0.10;99.90;;;;;;4933338;29;20182;-75
2021/01/24 06:26:58;;;;;;;12.45;5.35;;;0.10;99.90;;;;;;4920560;29;20212;-75
2021/01/24 06:29:25;;;;;;;10.23;4.57;;;0.20;99.90;;;;;;4938732;29;20039;-74
2021/01/24 06:31:53;;;;;;;11.20;6.55;;;0.10;99.90;;;;;;4934682;29;20147;-74
2021/01/24 06:34:37;;;;;;;12.57;6.13;;;0.20;99.90;;;;;;4938403;29;20054;-74
2021/01/24 06:37:19;;;;;;;13.20;5.95;;;0.20;99.90;;;;;;4961506;28;20051;-74
2021/01/24 06:39:50;;;;;;;9.63;4.80;;;0.20;99.90;;;;;;4930216;29;20138;-74
2021/01/24 06:42:35;;;;;;;11.25;5.43;;;0.20;99.90;;;;;;4930847;29;20051;-74
2021/01/24 06:45:05;;;;;;;12.13;5.80;;;0.20;99.90;;;;;;4942800;29;20086;-74
2021/01/24 06:47:40;;;;;;;10.63;5.35;;;0.20;99.90;;;;;;4939072;28;20375;-74
2021/01/24 06:50:35;;;;;;;12.07;6.10;;;0.20;99.90;;;;;;4932696;29;20095;-74
2021/01/24 06:53:11;;;;;;;16.13;5.93;;;0.30;99.90;;;;;;4933499;29;20047;-74
2021/01/24 06:55:41;;;;;;;7.47;3.63;;;0.30;99.90;;;;;;4933588;29;20052;-74
2021/01/24 06:58:26;;;;;;;9.35;5.40;;;0.20;99.90;;;;;;4931927;29;20054;-74
2021/01/24 07:01:13;;;;;;;9.70;5.55;;;0.20;99.90;;;;;;4945656;29;20051;-75
2021/01/24 07:03:40;;;;;;;12.32;5.72;;;0.10;99.90;;;;;;4933977;29;20048;-74
2021/01/24 07:06:45;;;;;;;10.68;5.35;;;0.20;99.90;;;;;;4938246;29;20528;-75
2021/01/24 07:09:29;;;;;;;13.13;6.97;;;0.20;99.90;;;;;;4917378;29;20201;-74
2021/01/24 07:12:05;;;;;;;16.45;6.57;;;0.20;99.90;;;;;;4911945;29;20127;-75
2021/01/24 07:14:31;;;;;;;12.10;7.15;;;0.10;99.90;;;;;;4927502;29;20079;-74
2021/01/24 07:17:01;;;;;;;9.88;6.03;;;0.10;99.90;;;;;;4933088;29;20135;-74
2021/01/24 07:19:32;;;;;;;11.27;5.80;;;0.10;99.90;;;;;;4932812;29;20059;-75
2021/01/24 07:21:59;;;;;;;16.17;7.30;;;0.10;99.90;;;;;;4932342;29;20100;-75
2021/01/24 07:24:26;;;;;;;15.82;7.32;;;0.10;99.90;;;;;;4934151;29;20052;-74
2021/01/24 07:26:55;;;;;;;16.45;7.50;;;0.10;99.90;;;;;;4938590;29;20072;-75
2021/01/24 07:29:22;;;;;;;13.77;5.72;;;0.20;99.90;;;;;;4946020;29;20154;-74
2021/01/24 07:31:49;;;;;;;13.15;7.18;;;0.10;99.90;;;;;;4946269;28;20055;-75
2021/01/24 07:34:25;;;;;;;13.95;7.60;;;0.10;99.90;;;;;;4943836;29;20044;-74
2021/01/24 07:36:54;;;;;;;14.15;6.72;;;0.20;99.90;;;;;;4943702;29;20169;-75
2021/01/24 07:39:21;;;;;;;17.98;7.45;;;0.10;99.90;;;;;;4929112;29;20083;-74
2021/01/24 07:41:50;;;;;;;12.88;6.63;;;0.20;99.90;;;;;;4924676;29;20132;-74
2021/01/24 07:44:17;;;;;;;13.32;7.82;;;0.20;99.90;;;;;;4933647;29;20052;-74
2021/01/24 07:46:44;;;;;;;12.77;6.07;;;0.20;99.90;;;;;;4930705;29;20134;-75
2021/01/24 07:49:10;;;;;;;16.20;8.15;;;0.20;99.90;;;;;;4931871;29;20132;-74
2021/01/24 07:51:37;;;;;;;12.93;7.25;;;0.30;99.90;;;;;;4943976;29;20043;-75
2021/01/24 07:54:04;;;;;;;13.70;6.22;;;0.30;99.90;;;;;;4938932;28;20241;-75
2021/01/24 07:56:31;;;;;;;11.25;4.75;;;0.30;99.90;;;;;;4947033;29;20284;-75
2021/01/24 07:58:58;;;;;;;11.73;5.88;;;0.30;99.90;;;;;;4930633;29;20138;-74
2021/01/24 08:01:26;;;;;;;10.15;5.97;;;0.30;99.90;;;;;;4934191;29;20467;-74
2021/01/24 08:03:53;;;;;;;15.20;7.68;;;0.30;99.90;;;;;;4933610;29;20548;-75
2021/01/24 08:06:19;;;;;;;11.68;6.53;;;0.30;99.90;;;;;;4932322;29;20087;-74
2021/01/24 08:08:47;;;;;;;16.73;7.82;;;0.40;99.90;;;;;;4929000;29;20127;-74
2021/01/24 08:11:14;;;;;;;13.55;6.57;;;0.30;99.90;;;;;;4933269;29;20099;-74
2021/01/24 08:13:42;;;;;;;12.57;6.25;;;0.40;99.90;;;;;;4934736;29;20051;-75
2021/01/24 08:16:18;;;;;;;10.90;5.72;;;0.40;99.90;;;;;;4947361;29;20090;-75
2021/01/24 08:18:48;;;;;;;13.40;6.82;;;0.50;99.90;;;;;;4935311;29;20051;-74
2021/01/24 08:21:16;;;;;;;15.38;7.22;;;0.40;99.90;;;;;;4939900;29;20043;-75
2021/01/24 08:23:48;;;;;;;11.20;5.72;;;0.40;99.90;;;;;;4952453;28;20490;-74
2021/01/24 08:26:16;;;;;;;10.18;4.65;;;0.50;99.90;;;;;;4939424;29;20073;-75
2021/01/24 08:28:43;;;;;;;8.55;4.65;;;0.50;99.90;;;;;;4936796;28;20054;-74
2021/01/24 08:31:16;;;;;;;11.10;6.07;;;0.60;99.90;;;;;;4931988;29;20075;-74
2021/01/24 08:33:42;;;;;;;10.82;4.60;;;0.70;99.90;;;;;;4932330;29;20126;-74
2021/01/24 08:36:13;;;;;;;12.88;4.93;;;0.60;99.90;;;;;;4932726;29;20123;-75
2021/01/24 08:38:40;;;;;;;9.65;5.47;;;0.70;99.90;;;;;;4939935;29;20126;-74
2021/01/24 08:41:07;;;;;;;11.25;5.28;;;0.70;99.90;;;;;;4934105;28;20095;-75
2021/01/24 08:43:34;;;;;;;9.25;5.03;;;0.80;99.90;;;;;;4931726;29;20047;-75
2021/01/24 08:46:20;;;;;;;10.30;5.20;;;0.70;99.90;;;;;;4929805;29;20048;-75
2021/01/24 08:49:00;;;;;;;13.40;5.60;;;0.80;99.90;;;;;;4937125;29;20155;-74
2021/01/24 08:51:38;;;;;;;11.00;6.00;;;0.80;99.90;;;;;;4942507;29;20446;-74
2021/01/24 08:54:14;;;;;;;9.77;5.70;;;0.90;99.90;;;;;;4936227;29;20525;-75
2021/01/24 08:56:40;;;;;;;16.65;6.22;;;0.90;99.90;;;;;;4940605;28;20059;-75
2021/01/24 08:59:16;;;;;;;10.85;6.07;;;0.90;99.90;;;;;;4933212;28;20099;-75
2021/01/24 09:01:47;;;;;;;13.65;5.75;;;0.90;99.90;;;;;;4931587;29;20510;-74
2021/01/24 09:04:32;;;;;;;10.98;6.05;;;0.90;99.90;;;;;;4932923;29;20129;-74
2021/01/24 09:07:03;;;;;;;10.10;5.10;;;0.90;99.90;;;;;;4929352;29;20585;-74
2021/01/24 09:09:30;;;;;;;12.27;5.80;;;0.90;99.90;;;;;;4931674;28;20048;-74
2021/01/24 09:11:57;;;;;;;11.52;6.53;;;0.90;99.90;;;;;;4936208;29;20178;-74
2021/01/24 09:14:24;;;;;;;9.88;6.30;;;0.90;99.90;;;;;;4935218;29;20079;-74
2021/01/24 09:17:01;;;;;;;12.80;6.50;;;1.00;99.90;;;;;;4944433;28;20486;-74
2021/01/24 09:19:28;;;;;;;11.52;3.72;;;1.00;99.90;;;;;;4948664;28;20058;-74
2021/01/24 09:21:55;;;;;;;11.18;4.15;;;1.00;99.90;;;;;;4950338;28;20096;-74
2021/01/24 09:24:22;;;;;;;10.95;5.28;;;1.00;99.90;;;;;;4950129;28;20073;-75
2021/01/24 09:26:48;;;;;;;8.13;3.72;;;1.00;99.90;;;;;;4931212;28;20420;-74
2021/01/24 09:29:15;;;;;;;11.75;4.47;;;1.00;99.90;;;;;;4931800;29;20075;-73
2021/01/24 09:31:42;;;;;;;8.40;5.03;;;1.00;99.90;;;;;;4936547;29;20047;-75
2021/01/24 09:34:09;;;;;;;13.18;4.75;;;1.00;99.90;;;;;;4936687;29;20126;-74
2021/01/24 09:36:35;;;;;;;11.57;5.10;;;0.90;99.90;;;;;;4941422;28;20126;-74
2021/01/24 09:39:03;;;;;;;14.57;4.80;;;1.00;99.90;;;;;;4946389;28;20087;-74
2021/01/24 09:41:29;;;;;;;11.02;5.15;;;1.00;99.90;;;;;;4931910;29;20122;-73
2021/01/24 09:43:56;;;;;;;11.27;4.40;;;1.00;99.90;;;;;;4931508;29;20051;-73
2021/01/24 09:46:22;;;;;;;7.50;4.05;;;1.10;99.90;;;;;;4931691;28;20048;-73
2021/01/24 09:48:49;;;;;;;11.63;5.97;;;1.10;99.90;;;;;;4948010;28;20105;-74
2021/01/24 09:51:15;;;;;;;6.25;2.55;;;1.30;99.90;;;;;;4949500;28;20139;-74
2021/01/24 09:53:42;;;;;;;14.85;4.13;;;1.40;99.90;;;;;;4942556;29;20542;-75
2021/01/24 09:56:08;;;;;;;8.70;3.88;;;1.40;99.90;;;;;;4934036;29;20079;-73
2021/01/24 09:58:34;;;;;;;8.52;3.63;;;1.50;99.90;;;;;;4931246;29;20139;-74
2021/01/24 10:01:01;;;;;;;8.65;3.63;;;1.50;99.90;;;;;;4933596;29;20048;-74
2021/01/24 10:03:28;;;;;;;9.15;4.15;;;1.70;99.90;;;;;;4949465;29;20231;-74
2021/01/24 10:05:54;;;;;;;7.25;3.60;;;1.60;99.90;;;;;;4945708;28;20055;-74
2021/01/24 10:08:20;;;;;;;12.13;4.47;;;1.50;99.90;;;;;;4936120;29;20130;-73
2021/01/24 10:10:47;;;;;;;7.25;3.92;;;1.50;99.90;;;;;;4950158;28;20070;-74
2021/01/24 10:13:14;;;;;;;8.35;3.72;;;1.50;99.90;;;;;;4924977;29;20122;-74
2021/01/24 10:15:41;;;;;;;7.90;3.55;;;1.60;99.90;;;;;;4942876;29;20047;-74
2021/01/24 10:18:07;;;;;;;5.50;3.30;;;1.60;99.90;;;;;;4930623;29;20052;-75
2021/01/24 10:20:34;;;;;;;6.65;3.47;;;1.60;99.90;;;;;;4936949;29;20138;-76
2021/01/24 10:23:01;;;;;;;9.10;3.90;;;1.70;99.90;;;;;;4949381;28;20134;-75
2021/01/24 10:25:27;;;;;;;11.32;4.55;;;1.60;99.90;;;;;;4940763;28;20083;-75
2021/01/24 10:27:53;;;;;;;7.05;4.20;;;1.70;99.90;;;;;;4948467;29;20387;-76
2021/01/24 10:30:20;;;;;;;11.18;4.32;;;1.70;99.90;;;;;;4950338;29;20051;-75
2021/01/24 10:32:47;;;;;;;9.27;3.92;;;1.70;99.90;;;;;;4953116;29;20475;-76
2021/01/24 10:35:13;;;;;;;112.72;45.42;;;1.80;99.90;;;;;;4945562;29;20151;-76
2021/01/24 10:37:40;;;;;;;7.57;3.75;;;1.90;99.90;;;;;;4945400;28;20047;-75
2021/01/24 10:40:07;;;;;;;7.50;4.63;;;1.90;99.90;;;;;;4919988;29;20056;-75
2021/01/24 10:42:33;;;;;;;13.88;5.00;;;2.00;99.90;;;;;;4930326;29;20420;-75
2021/01/24 10:45:00;;;;;;;14.13;5.10;;;2.00;99.90;;;;;;4924179;29;20107;-75
2021/01/24 10:47:26;;;;;;;9.88;4.30;;;2.10;99.90;;;;;;4926323;29;20547;-76
2021/01/24 10:49:53;;;;;;;10.80;4.65;;;2.10;99.90;;;;;;4930035;29;20136;-75
2021/01/24 10:52:19;;;;;;;11.02;5.35;;;2.20;99.90;;;;;;4934646;29;20079;-75
2021/01/24 10:54:45;;;;;;;11.98;4.50;;;2.10;99.90;;;;;;4934949;29;20132;-75
2021/01/24 10:57:12;;;;;;;9.38;4.60;;;2.20;99.90;;;;;;4947858;29;20138;-75
2021/01/24 10:59:38;;;;;;;12.05;5.35;;;2.20;99.90;;;;;;4933464;29;20114;-74
2021/01/24 11:02:04;;;;;;;7.00;3.67;;;2.20;99.90;;;;;;4933184;29;20064;-75
2021/01/24 11:04:32;;;;;;;9.35;4.03;;;2.10;99.90;;;;;;4934675;29;20260;-74
2021/01/24 11:07:00;;;;;;;7.95;4.88;;;2.10;99.90;;;;;;4932194;29;20111;-73
2021/01/24 11:09:27;;;;;;;8.93;3.58;;;2.10;99.90;;;;;;4931682;29;20158;-75
2021/01/24 11:11:53;;;;;;;6.75;4.20;;;2.10;99.90;;;;;;4930537;29;20043;-74
2021/01/24 11:14:20;;;;;;;7.05;2.65;;;2.10;99.90;;;;;;4946816;29;20103;-74
2021/01/24 11:16:46;;;;;;;7.18;4.10;;;2.10;99.90;;;;;;4926849;29;20218;-75
2021/01/24 11:19:13;;;;;;;9.30;4.28;;;2.10;99.90;;;;;;4932957;29;20074;-74
2021/01/24 11:21:39;;;;;;;9.98;4.20;;;2.20;99.90;;;;;;4929331;29;20294;-75
2021/01/24 11:24:06;;;;;;;10.27;4.60;;;2.20;99.90;;;;;;4927360;29;20127;-75
2021/01/24 11:26:32;;;;;;;12.65;3.78;;;2.00;99.90;;;;;;4932005;29;20075;-75
2021/01/24 11:28:58;;;;;;;10.90;4.43;;;2.00;99.90;;;;;;4936798;29;20048;-75
2021/01/24 11:31:25;;;;;;;13.60;5.07;;;2.10;99.90;;;;;;4945839;28;20490;-75
2021/01/24 11:33:52;;;;;;;10.70;5.85;;;2.00;99.90;;;;;;4921112;29;20056;-75
2021/01/24 11:36:18;;;;;;;9.20;4.95;;;2.10;99.90;;;;;;4928301;29;20056;-75
2021/01/24 11:38:44;;;;;;;8.80;4.07;;;2.00;99.90;;;;;;4925764;29;20530;-74
2021/01/24 11:41:22;;;;;;;9.55;4.65;;;2.10;99.90;;;;;;4927856;29;20056;-75
2021/01/24 11:43:49;;;;;;;15.85;6.18;;;1.90;99.90;;;;;;4927076;29;20142;-75
2021/01/24 11:46:16;;;;;;;14.27;6.88;;;1.90;99.90;;;;;;4928495;29;20114;-75
2021/01/24 11:48:42;;;;;;;15.52;7.10;;;2.00;99.90;;;;;;4918018;29;20040;-76
2021/01/24 11:51:09;;;;;;;7.55;4.05;;;1.90;99.90;;;;;;4922231;29;20563;-74
2021/01/24 11:53:37;;;;;;;14.23;6.10;;;1.80;99.90;;;;;;4927517;29;20103;-72
2021/01/24 11:56:06;;;;;;;12.23;5.82;;;1.80;99.90;;;;;;4933655;29;20044;-75
2021/01/24 11:58:34;;;;;;;14.38;4.57;;;2.00;99.90;;;;;;4924617;29;20063;-75
2021/01/24 12:01:00;;;;;;;12.32;5.15;;;2.00;99.90;;;;;;4932284;29;20052;-76
2021/01/24 12:03:27;;;;;;;10.40;3.88;;;2.00;99.90;;;;;;4915443;29;20537;-75
2021/01/24 12:05:53;;;;;;;7.78;3.78;;;2.10;99.90;;;;;;4932031;29;20147;-75
2021/01/24 12:08:20;;;;;;;10.63;4.63;;;2.10;99.90;;;;;;4929498;29;20315;-76
2021/01/24 12:10:46;;;;;;;10.35;4.20;;;2.20;99.90;;;;;;4945677;29;20126;-76
2021/01/24 12:13:14;;;;;;;6.97;3.00;;;2.20;99.90;;;;;;4928159;29;20123;-75
2021/01/24 12:15:40;;;;;;;9.88;3.88;;;2.40;99.90;;;;;;4933113;29;20048;-75
2021/01/24 12:18:07;;;;;;;8.48;3.85;;;2.60;99.90;;;;;;4932949;29;20114;-75
2021/01/24 12:20:34;;;;;;;6.32;2.38;;;2.60;99.90;;;;;;4931939;29;20083;-75
2021/01/24 12:23:00;;;;;;;10.70;3.40;;;2.70;99.90;;;;;;4933526;29;20051;-75
2021/01/24 12:25:29;;;;;;;4.93;2.65;;;2.70;99.90;;;;;;4931243;29;20481;-75
2021/01/24 12:27:56;;;;;;;7.15;2.63;;;2.70;99.90;;;;;;4944978;28;20043;-75
2021/01/24 12:30:22;;;;;;;5.10;1.90;;;2.60;99.90;;;;;;4933192;29;20150;-75
2021/01/24 12:32:49;;;;;;;6.60;2.35;;;2.40;99.90;;;;;;4931736;29;20183;-75
2021/01/24 12:35:15;;;;;;;6.68;2.08;;;2.40;99.90;;;;;;4932110;29;20106;-75
2021/01/24 12:37:42;;;;;;;4.43;1.90;;;2.40;99.90;;;;;;4932705;29;20128;-75
2021/01/24 12:40:09;;;;;;;6.68;1.75;;;2.50;99.90;;;;;;4932717;29;20055;-75
2021/01/24 12:42:35;;;;;;;9.00;2.00;;;2.70;99.90;;;;;;4932325;29;20150;-75
2021/01/24 12:45:03;;;;;;;8.43;2.60;;;2.80;99.90;;;;;;4932361;29;20122;-75
2021/01/24 12:47:30;;;;;;;6.75;2.60;;;2.90;99.90;;;;;;4923356;29;20155;-75
2021/01/24 12:49:56;;;;;;;5.60;2.35;;;2.90;99.90;;;;;;4927544;29;20134;-75
2021/01/24 12:52:23;;;;;;;7.15;1.83;;;2.90;99.90;;;;;;4931516;29;20118;-75
2021/01/24 12:54:49;;;;;;;6.53;2.08;;;2.90;99.90;;;;;;4930987;29;20431;-75
2021/01/24 12:57:15;;;;;;;7.18;2.20;;;2.80;99.90;;;;;;4932697;29;20131;-75